Airfield :
LOGIN :

Register | Disclaimer

   EN    FR    IT 

 










Legend :    VFR   Marginal VFR   IFR   Intensive IFR   Very Intensive IFR
Visi :
Ceiling :
>= 8 km
>= 3000ft
5 to 8 km
1000 to 3000 ft
1500m to 5 km
500 to 1000 ft
800 to 1500m
200 to 500 ft
< 800m
< 200 ft
Symbols :   Thunderstorms  Fog  Heavy snow  Heavy precipitations  Wind > 20 kt
SIGMETs :     Misc.  Thunderstorms  Icing  Turbulence  Mountain Waves  Volcanic Ashes







- Airport Elevation : 3368 ft


LSGC - Les Eplatures

CURRENT METAR :
  • 222050Z AUTO VRB01KT CAVOK 19/14 Q1027

EXPIRED METARs :
  • 222020Z AUTO VRB01KT 9999 NCD 20/14 Q1027
  • 221950Z AUTO VRB02KT 9999 NSC 21/14 Q1027
  • 221920Z AUTO VRB03KT CAVOK 21/14 Q1026
  • 221850Z AUTO 01004KT 320V050 CAVOK 22/14 Q1026
  • 221820Z AUTO 02003KT CAVOK 23/14 Q1026

TAF TAF LSGC
Valid from the 22 at 15:00 until the 23 at 00:00 UTC


221425Z 2215/2224 VRB03KT CAVOK
No reported NOTAMs for that airfield.



MET'MAP, your aeronautical weather chart ! - Copyright ORBIFLY December 2007 - Disclaimer

ORBIFLY MET'MAP TEAM :

Programming & Development : Alexandra Zaïnal
Concept & Development : Baudouin d'Aumeries
Co-Development & Prog : Marc-Olivier Méhu
Technical & hardware support : Manuel Goepfert

Contact : metmap@orbifly.com




SOURCES & CREDITS :

   NOAA